createdAt,value
2017-09-30T00:02:01.531Z,96.30
2017-09-30T00:04:29.787Z,96.10
2017-09-30T00:06:58.043Z,96.30
2017-09-30T00:09:25.530Z,96.20
2017-09-30T00:11:53.785Z,95.30
2017-09-30T00:14:21.265Z,95.30
2017-09-30T00:16:49.504Z,95.90
2017-09-30T00:19:16.991Z,95.80
2017-09-30T00:21:44.464Z,95.80
2017-09-30T00:24:12.715Z,95.80
2017-09-30T00:26:40.199Z,95.80
2017-09-30T00:29:08.450Z,95.80
2017-09-30T00:31:35.931Z,95.70
2017-09-30T00:34:04.181Z,96.40
2017-09-30T00:36:31.668Z,96.40
2017-09-30T00:38:59.919Z,96.20
2017-09-30T00:41:27.402Z,96.20
2017-09-30T00:43:55.650Z,96.30
2017-09-30T00:46:23.139Z,96.30
2017-09-30T00:48:51.391Z,95.80
2017-09-30T00:51:19.646Z,96.30
2017-09-30T00:53:47.138Z,96.30
2017-09-30T00:56:14.608Z,96.10
2017-09-30T00:58:42.857Z,96.40
2017-09-30T01:01:10.341Z,96.40
2017-09-30T01:03:38.595Z,96.70
2017-09-30T01:06:06.083Z,96.60
2017-09-30T01:08:34.343Z,96.10
2017-09-30T01:11:01.826Z,96.10
2017-09-30T01:13:30.073Z,96.50
2017-09-30T01:15:57.551Z,96.50
2017-09-30T01:18:25.806Z,96.50
2017-09-30T01:20:53.294Z,96.50
2017-09-30T01:23:21.540Z,96.60
2017-09-30T01:25:49.017Z,96.90
2017-09-30T01:28:17.284Z,96.70
2017-09-30T01:30:44.780Z,96.40
2017-09-30T01:33:12.277Z,96.60
2017-09-30T01:35:39.771Z,96.70
2017-09-30T01:38:08.022Z,96.70
2017-09-30T01:40:35.506Z,96.70
2017-09-30T01:43:03.758Z,96.50
2017-09-30T01:45:31.251Z,97.10
2017-09-30T01:47:59.499Z,97.00
2017-09-30T01:50:28.495Z,96.70
2017-09-30T01:52:55.990Z,96.70
2017-09-30T01:55:24.251Z,96.80
2017-09-30T01:57:52.503Z,97.70
2017-09-30T02:00:20.010Z,97.30
2017-09-30T02:02:48.252Z,97.10
2017-09-30T02:05:15.735Z,97.10
2017-09-30T02:07:43.976Z,97.10
2017-09-30T02:10:11.458Z,97.10
2017-09-30T02:12:38.982Z,97.10
2017-09-30T02:15:06.465Z,97.50
2017-09-30T02:17:33.956Z,97.30
2017-09-30T02:20:01.440Z,97.30
2017-09-30T02:22:28.927Z,97.20
2017-09-30T02:24:56.414Z,97.10
2017-09-30T02:27:24.675Z,97.10
2017-09-30T02:29:52.157Z,97.00
2017-09-30T02:32:20.411Z,97.60
2017-09-30T02:34:47.894Z,97.40
2017-09-30T02:37:16.133Z,96.20
2017-09-30T02:39:43.609Z,96.10
2017-09-30T02:42:11.090Z,96.30
2017-09-30T02:44:39.340Z,96.50
2017-09-30T02:47:06.827Z,96.50
2017-09-30T02:49:35.091Z,97.10
2017-09-30T02:52:03.346Z,97.00
2017-09-30T02:54:30.840Z,97.00
2017-09-30T02:56:59.093Z,97.50
2017-09-30T02:59:26.577Z,97.50
2017-09-30T03:01:54.843Z,97.40
2017-09-30T03:04:23.085Z,97.60
2017-09-30T03:06:50.576Z,97.70
2017-09-30T03:09:18.833Z,97.60
2017-09-30T03:11:46.313Z,97.50
2017-09-30T03:14:14.565Z,97.70
2017-09-30T03:16:42.051Z,97.70
2017-09-30T03:19:10.306Z,97.10
2017-09-30T03:21:37.781Z,97.10
2017-09-30T03:24:06.038Z,97.60
2017-09-30T03:26:33.521Z,97.60
2017-09-30T03:29:01.780Z,97.10
2017-09-30T03:31:29.283Z,97.00
2017-09-30T03:33:56.796Z,96.90
2017-09-30T03:36:24.281Z,97.30
2017-09-30T03:38:52.535Z,97.50
2017-09-30T03:41:20.013Z,97.50
2017-09-30T03:43:48.267Z,97.70
2017-09-30T03:46:15.751Z,97.70
2017-09-30T03:48:44.006Z,97.40
2017-09-30T03:51:11.481Z,97.30
2017-09-30T03:53:38.993Z,97.30
2017-09-30T03:56:06.478Z,97.00
2017-09-30T03:58:33.967Z,97.30
2017-09-30T04:01:02.216Z,97.10
2017-09-30T04:03:29.712Z,97.00
2017-09-30T04:05:57.957Z,97.40
2017-09-30T04:08:25.431Z,97.30
2017-09-30T04:10:53.682Z,97.80
2017-09-30T04:13:21.161Z,97.80
2017-09-30T04:15:48.641Z,97.70
2017-09-30T04:18:16.884Z,97.40
2017-09-30T04:20:44.379Z,97.40
2017-09-30T04:23:11.867Z,97.30
2017-09-30T04:25:39.355Z,97.30
2017-09-30T04:28:06.855Z,97.70
2017-09-30T04:30:34.350Z,97.90
2017-09-30T04:33:01.829Z,98.00
2017-09-30T04:35:29.310Z,99.10
2017-09-30T04:37:57.568Z,96.90
2017-09-30T04:40:25.048Z,96.90
2017-09-30T04:42:53.310Z,98.30
2017-09-30T04:45:20.794Z,98.30
2017-09-30T04:47:49.057Z,98.60
2017-09-30T04:50:17.323Z,98.40
2017-09-30T04:52:44.814Z,98.40
2017-09-30T04:55:13.063Z,98.10
2017-09-30T04:57:40.556Z,97.80
2017-09-30T05:00:08.043Z,97.90
2017-09-30T05:02:35.530Z,98.00
2017-09-30T05:05:03.018Z,98.20
2017-09-30T05:07:31.270Z,97.80
2017-09-30T05:09:58.756Z,97.80
2017-09-30T05:12:27.012Z,98.00
2017-09-30T05:14:54.497Z,97.90
2017-09-30T05:17:22.753Z,98.70
2017-09-30T05:19:51.009Z,98.90
2017-09-30T05:22:18.498Z,98.90
2017-09-30T05:24:46.761Z,98.60
2017-09-30T05:27:14.238Z,98.50
2017-09-30T05:29:42.496Z,98.50
2017-09-30T05:32:09.993Z,98.50
2017-09-30T05:34:37.483Z,98.60
2017-09-30T05:37:04.964Z,98.50
2017-09-30T05:39:32.442Z,98.30
2017-09-30T05:42:00.707Z,98.70
2017-09-30T05:44:28.190Z,98.70
2017-09-30T05:46:56.444Z,98.60
2017-09-30T05:49:23.930Z,98.50
2017-09-30T05:51:52.177Z,98.80
2017-09-30T05:54:19.667Z,98.70
2017-09-30T05:56:47.918Z,99.00
2017-09-30T05:59:15.398Z,99.00
2017-09-30T06:01:43.659Z,98.70
2017-09-30T06:04:11.922Z,99.00
2017-09-30T06:06:39.406Z,98.70
2017-09-30T06:09:07.666Z,99.10
2017-09-30T06:11:35.151Z,99.10
2017-09-30T06:14:03.406Z,99.10
2017-09-30T06:16:30.888Z,99.00
2017-09-30T06:18:59.146Z,99.00
2017-09-30T06:21:27.403Z,99.20
2017-09-30T06:23:54.886Z,99.20
2017-09-30T06:26:23.134Z,99.60
2017-09-30T06:28:50.614Z,99.60
2017-09-30T06:31:18.869Z,99.60
2017-09-30T06:33:46.364Z,99.60
2017-09-30T06:36:14.627Z,99.30
2017-09-30T06:38:42.105Z,99.20
2017-09-30T06:41:10.357Z,99.90
2017-09-30T06:43:37.842Z,99.90
2017-09-30T06:46:06.095Z,99.70
2017-09-30T06:48:33.579Z,99.60
2017-09-30T06:51:01.838Z,99.10
2017-09-30T06:53:30.089Z,98.90
2017-09-30T06:55:57.604Z,98.90
2017-09-30T06:58:25.099Z,98.90
2017-09-30T07:00:52.580Z,99.00
2017-09-30T07:03:20.063Z,99.10
2017-09-30T07:05:48.309Z,99.10
2017-09-30T07:08:15.785Z,99.10
2017-09-30T07:10:44.034Z,99.10
2017-09-30T07:13:11.522Z,99.00
2017-09-30T07:15:39.012Z,99.20
2017-09-30T07:18:06.497Z,99.20
2017-09-30T07:20:33.987Z,99.30
2017-09-30T07:23:01.475Z,99.40
2017-09-30T07:25:32.295Z,98.90
2017-09-30T07:28:00.551Z,98.90
2017-09-30T07:30:28.038Z,98.80
2017-09-30T07:32:56.291Z,98.40
2017-09-30T07:35:23.774Z,98.40
2017-09-30T07:37:52.048Z,98.30
2017-09-30T07:40:20.319Z,98.40
2017-09-30T07:42:47.809Z,98.40
2017-09-30T07:45:15.297Z,98.10
2017-09-30T07:47:42.840Z,98.20
2017-09-30T07:50:10.331Z,98.50
2017-09-30T07:52:37.815Z,98.40
2017-09-30T07:55:05.308Z,96.60
2017-09-30T07:57:32.799Z,96.50
2017-09-30T08:00:00.282Z,96.50
2017-09-30T08:02:27.778Z,98.30
2017-09-30T08:04:55.283Z,96.40
2017-09-30T08:07:22.757Z,96.30
2017-09-30T08:09:50.233Z,96.90
2017-09-30T08:12:18.491Z,96.60
2017-09-30T08:14:45.986Z,96.50
2017-09-30T08:17:14.242Z,96.70
2017-09-30T08:19:41.729Z,96.70
2017-09-30T08:22:09.210Z,96.90
2017-09-30T08:24:36.702Z,97.70
2017-09-30T08:27:04.190Z,96.70
2017-09-30T08:29:32.443Z,96.90
2017-09-30T08:32:00.700Z,96.90
2017-09-30T08:34:28.192Z,96.90
2017-09-30T08:36:56.447Z,97.20
2017-09-30T08:39:25.407Z,97.20
2017-09-30T08:41:53.066Z,96.80
2017-09-30T08:44:20.552Z,97.30
2017-09-30T08:46:48.699Z,96.60
2017-09-30T08:49:16.294Z,97.40
2017-09-30T08:51:43.790Z,96.80
2017-09-30T08:54:12.594Z,96.80
2017-09-30T08:56:40.354Z,96.80
2017-09-30T08:59:08.700Z,98.20
2017-09-30T09:01:36.451Z,98.20
2017-09-30T09:04:03.933Z,95.70
2017-09-30T09:06:32.177Z,96.00
2017-09-30T09:08:59.668Z,96.00
2017-09-30T09:11:27.168Z,93.10
2017-09-30T09:13:54.664Z,94.30
2017-09-30T09:16:22.142Z,93.60
2017-09-30T09:18:50.393Z,95.50
2017-09-30T09:21:17.877Z,95.60
2017-09-30T09:23:45.365Z,96.10
2017-09-30T09:26:13.619Z,92.80
2017-09-30T09:28:41.409Z,92.80
2017-09-30T09:31:09.718Z,92.80
2017-09-30T09:33:38.912Z,92.80
2017-09-30T09:36:06.497Z,93.70
2017-09-30T09:38:33.983Z,94.30
2017-09-30T09:41:02.968Z,93.20
2017-09-30T09:43:30.581Z,93.00
2017-09-30T09:45:58.071Z,91.30
2017-09-30T09:48:25.577Z,91.10
2017-09-30T09:50:54.083Z,90.80
2017-09-30T09:53:22.558Z,94.60
2017-09-30T09:55:50.139Z,94.50
2017-09-30T09:58:17.621Z,93.60
2017-09-30T10:00:45.102Z,88.10
2017-09-30T10:03:13.421Z,90.30
2017-09-30T10:05:40.896Z,90.30
2017-09-30T10:08:08.382Z,90.10
2017-09-30T10:10:35.861Z,91.00
2017-09-30T10:13:04.113Z,93.00
2017-09-30T10:15:31.614Z,92.90
2017-09-30T10:17:59.866Z,86.30
2017-09-30T10:20:28.115Z,89.80
2017-09-30T10:22:55.619Z,90.20
2017-09-30T10:25:23.875Z,91.20
2017-09-30T10:27:51.360Z,91.10
2017-09-30T10:30:19.607Z,89.50
2017-09-30T10:32:47.091Z,89.30
2017-09-30T10:35:15.342Z,90.90
2017-09-30T10:37:42.821Z,90.90
2017-09-30T10:40:11.075Z,84.50
2017-09-30T10:42:38.568Z,84.40
2017-09-30T10:45:06.057Z,87.30
2017-09-30T10:47:33.534Z,85.60
2017-09-30T10:50:01.020Z,90.40
2017-09-30T10:52:28.503Z,88.80
2017-09-30T10:54:56.746Z,88.00
2017-09-30T10:57:24.241Z,88.10
2017-09-30T10:59:51.729Z,78.30
2017-09-30T11:02:19.215Z,78.10
2017-09-30T11:04:46.902Z,86.00
2017-09-30T11:07:15.151Z,85.80
2017-09-30T11:09:42.646Z,84.90
2017-09-30T11:12:10.899Z,73.40
2017-09-30T11:14:38.433Z,73.40
2017-09-30T11:17:05.971Z,80.90
2017-09-30T11:19:33.450Z,85.00
2017-09-30T11:22:00.944Z,85.00
2017-09-30T11:24:28.687Z,82.50
2017-09-30T11:26:56.178Z,84.30
2017-09-30T11:29:24.434Z,83.80
2017-09-30T11:31:51.928Z,83.80
2017-09-30T11:34:20.375Z,84.50
2017-09-30T11:36:47.978Z,82.90
2017-09-30T11:39:15.475Z,82.80
2017-09-30T11:41:42.971Z,83.30
2017-09-30T11:44:11.220Z,72.00
2017-09-30T11:46:38.699Z,72.10
2017-09-30T11:49:06.311Z,76.30
2017-09-30T11:51:34.713Z,73.60
2017-09-30T11:54:02.282Z,76.90
2017-09-30T11:56:30.064Z,73.00
2017-09-30T11:58:57.550Z,76.20
2017-09-30T12:01:25.807Z,85.60
2017-09-30T12:03:54.057Z,84.40
2017-09-30T12:06:21.541Z,83.90
2017-09-30T12:08:49.035Z,90.30
2017-09-30T12:11:16.522Z,90.10
2017-09-30T12:13:44.019Z,79.60
2017-09-30T12:16:13.002Z,70.00
2017-09-30T12:18:40.477Z,70.00
2017-09-30T12:21:08.729Z,72.50
2017-09-30T12:23:36.222Z,71.80
2017-09-30T12:26:04.480Z,76.00
2017-09-30T12:28:31.963Z,75.00
2017-09-30T12:31:00.211Z,70.40
2017-09-30T12:33:27.704Z,70.20
2017-09-30T12:35:56.111Z,71.00
2017-09-30T12:38:23.625Z,71.30
2017-09-30T12:40:51.865Z,72.90
2017-09-30T12:43:19.351Z,72.80
2017-09-30T12:45:46.848Z,74.30
2017-09-30T12:48:15.110Z,73.10
2017-09-30T12:50:43.357Z,73.50
2017-09-30T12:53:10.853Z,73.50
2017-09-30T12:55:39.103Z,70.50
2017-09-30T12:58:07.400Z,73.10
2017-09-30T13:00:35.659Z,76.20
2017-09-30T13:03:03.930Z,76.30
2017-09-30T13:05:31.434Z,76.30
2017-09-30T13:07:58.917Z,75.50
2017-09-30T13:10:26.481Z,75.80
2017-09-30T13:12:54.777Z,73.90
2017-09-30T13:15:22.435Z,74.00
2017-09-30T13:17:49.927Z,75.50
2017-09-30T13:20:18.176Z,72.30
2017-09-30T13:22:45.671Z,72.30
2017-09-30T13:25:13.189Z,77.20
2017-09-30T13:27:40.713Z,77.30
2017-09-30T13:30:08.206Z,70.60
2017-09-30T13:32:35.727Z,74.00
2017-09-30T13:35:03.212Z,75.90
2017-09-30T13:37:30.698Z,76.90
2017-09-30T13:39:58.182Z,76.40
2017-09-30T13:42:26.430Z,76.40
2017-09-30T13:44:53.954Z,76.40
2017-09-30T13:47:21.446Z,77.00
2017-09-30T13:49:48.947Z,73.50
2017-09-30T13:52:17.206Z,75.10
2017-09-30T13:54:45.456Z,74.50
2017-09-30T13:57:12.955Z,74.20
2017-09-30T13:59:41.213Z,70.00
2017-09-30T14:02:09.473Z,72.50
2017-09-30T14:04:36.959Z,72.20
2017-09-30T14:07:05.214Z,73.50
2017-09-30T14:09:33.484Z,72.00
2017-09-30T14:12:00.975Z,72.00
2017-09-30T14:14:29.235Z,71.90
2017-09-30T14:16:56.727Z,71.80
2017-09-30T14:19:24.212Z,73.40
2017-09-30T14:21:51.699Z,72.60
2017-09-30T14:24:19.188Z,69.90
2017-09-30T14:26:47.438Z,72.40
2017-09-30T14:29:14.931Z,71.70
2017-09-30T14:31:43.182Z,73.00
2017-09-30T14:34:10.669Z,72.80
2017-09-30T14:36:38.909Z,70.10
2017-09-30T14:39:07.179Z,73.70
2017-09-30T14:41:34.678Z,73.00
2017-09-30T14:44:02.925Z,73.30
2017-09-30T14:46:30.407Z,73.30
2017-09-30T14:48:58.671Z,73.00
2017-09-30T14:51:27.670Z,70.50
2017-09-30T14:53:55.923Z,68.10
2017-09-30T14:56:23.401Z,67.90
2017-09-30T14:58:50.887Z,70.70
2017-09-30T15:01:19.142Z,73.80
2017-09-30T15:03:47.395Z,72.50
2017-09-30T15:06:14.877Z,72.60
2017-09-30T15:08:42.361Z,71.60
2017-09-30T15:11:09.842Z,68.20
2017-09-30T15:13:37.320Z,73.40
2017-09-30T15:16:04.812Z,74.60
2017-09-30T15:18:33.095Z,68.60
2017-09-30T15:21:01.333Z,68.50
2017-09-30T15:23:28.827Z,68.10
2017-09-30T15:25:57.082Z,69.00
2017-09-30T15:28:24.562Z,68.80
2017-09-30T15:30:52.818Z,70.50
2017-09-30T15:33:20.313Z,69.60
2017-09-30T15:35:48.562Z,73.60
2017-09-30T15:38:17.555Z,72.80
2017-09-30T15:40:45.038Z,72.70
2017-09-30T15:43:13.295Z,69.60
2017-09-30T15:45:40.770Z,69.30
2017-09-30T15:48:09.030Z,71.80
2017-09-30T15:50:36.513Z,71.70
2017-09-30T15:53:04.757Z,71.20
2017-09-30T15:55:32.242Z,71.50
2017-09-30T15:58:00.480Z,74.50
2017-09-30T16:00:27.968Z,74.20
2017-09-30T16:02:56.235Z,71.60
2017-09-30T16:05:23.721Z,70.90
2017-09-30T16:07:51.970Z,74.30
2017-09-30T16:10:19.472Z,74.40
2017-09-30T16:12:46.958Z,74.60
2017-09-30T16:15:14.542Z,74.30
2017-09-30T16:17:42.035Z,73.30
2017-09-30T16:20:10.281Z,73.90
2017-09-30T16:22:37.771Z,74.80
2017-09-30T16:25:06.032Z,77.80
2017-09-30T16:27:34.290Z,73.50
2017-09-30T16:30:01.776Z,73.50
2017-09-30T16:32:30.022Z,78.60
2017-09-30T16:34:57.510Z,78.40
2017-09-30T16:37:25.763Z,78.20
2017-09-30T16:39:53.248Z,78.10
2017-09-30T16:42:21.500Z,71.50
2017-09-30T16:44:49.000Z,71.60
2017-09-30T16:47:17.246Z,83.30
2017-09-30T16:49:46.241Z,69.80
2017-09-30T16:52:13.751Z,69.80
2017-09-30T16:54:41.256Z,93.10
2017-09-30T16:57:08.764Z,95.00
2017-09-30T16:59:36.258Z,79.30
2017-09-30T17:02:03.788Z,72.50
2017-09-30T17:04:31.311Z,77.50
2017-09-30T17:06:59.571Z,70.50
2017-09-30T17:09:27.049Z,70.60
2017-09-30T17:11:55.301Z,70.90
2017-09-30T17:14:22.784Z,71.00
2017-09-30T17:16:51.028Z,75.00
2017-09-30T17:19:18.501Z,74.80
2017-09-30T17:21:46.090Z,76.50
2017-09-30T17:24:14.349Z,72.50
2017-09-30T17:26:43.383Z,71.50
2017-09-30T17:29:10.870Z,71.40
2017-09-30T17:31:38.354Z,70.80
2017-09-30T17:34:07.349Z,70.40
2017-09-30T17:36:34.832Z,70.30
2017-09-30T17:39:03.082Z,71.40
2017-09-30T17:41:32.086Z,92.70
2017-09-30T17:44:00.351Z,79.60
2017-09-30T17:46:27.843Z,78.50
2017-09-30T17:48:56.098Z,90.10
2017-09-30T17:51:23.596Z,89.10
2017-09-30T17:53:51.080Z,88.00
2017-09-30T17:56:18.570Z,90.30
2017-09-30T17:58:46.076Z,82.10
2017-09-30T18:01:13.577Z,91.30
2017-09-30T18:03:41.069Z,78.10
2017-09-30T18:06:09.322Z,76.50
2017-09-30T18:08:38.317Z,82.20
2017-09-30T18:11:05.812Z,81.40
2017-09-30T18:13:33.311Z,83.40
2017-09-30T18:16:00.804Z,72.00
2017-09-30T18:18:29.060Z,88.40
2017-09-30T18:20:56.549Z,88.70
2017-09-30T18:23:24.812Z,85.80
2017-09-30T18:25:52.303Z,86.30
2017-09-30T18:28:19.806Z,75.60
2017-09-30T18:30:47.303Z,74.70
2017-09-30T18:33:15.554Z,83.90
2017-09-30T18:35:43.040Z,83.30
2017-09-30T18:38:11.285Z,85.40
2017-09-30T18:40:38.770Z,85.80
2017-09-30T18:43:07.025Z,88.90
2017-09-30T18:45:34.536Z,87.70
2017-09-30T18:48:02.147Z,85.70
2017-09-30T18:50:29.639Z,75.90
2017-09-30T18:52:57.894Z,73.30
2017-09-30T18:55:25.378Z,73.10
2017-09-30T18:57:53.625Z,71.30
2017-09-30T19:00:21.125Z,71.30
2017-09-30T19:02:48.618Z,71.00
2017-09-30T19:05:16.110Z,71.00
2017-09-30T19:07:44.390Z,73.80
2017-09-30T19:10:12.650Z,72.60
2017-09-30T19:12:40.142Z,72.40
2017-09-30T19:15:08.408Z,77.20
2017-09-30T19:17:36.667Z,69.20
2017-09-30T19:20:04.168Z,68.90
2017-09-30T19:22:31.668Z,72.10
2017-09-30T19:24:59.157Z,82.10
2017-09-30T19:27:27.423Z,90.00
2017-09-30T19:29:54.945Z,88.70
2017-09-30T19:32:22.429Z,75.60
2017-09-30T19:34:49.914Z,70.30
2017-09-30T19:37:18.170Z,68.30
2017-09-30T19:39:45.679Z,68.20
2017-09-30T19:42:13.176Z,82.40
2017-09-30T19:44:40.670Z,72.00
2017-09-30T19:47:08.935Z,71.00
2017-09-30T19:49:36.426Z,70.80
2017-09-30T19:52:03.932Z,87.30
2017-09-30T19:54:31.433Z,70.40
2017-09-30T19:56:59.695Z,71.50
2017-09-30T19:59:28.700Z,84.30
2017-09-30T20:01:56.957Z,86.50
2017-09-30T20:04:24.442Z,86.00
2017-09-30T20:06:52.691Z,72.90
2017-09-30T20:09:20.183Z,72.90
2017-09-30T20:11:48.435Z,75.60
2017-09-30T20:14:15.922Z,75.30
2017-09-30T20:16:44.170Z,75.40
2017-09-30T20:19:11.667Z,75.50
2017-09-30T20:21:39.149Z,75.50
2017-09-30T20:24:07.476Z,75.80
2017-09-30T20:26:35.713Z,74.10
2017-09-30T20:29:03.185Z,74.00
2017-09-30T20:31:30.678Z,73.60
2017-09-30T20:33:58.921Z,72.90
2017-09-30T20:36:26.423Z,72.80
2017-09-30T20:38:54.676Z,72.90
2017-09-30T20:41:22.148Z,72.80
2017-09-30T20:43:50.394Z,72.70
2017-09-30T20:46:17.873Z,72.60
2017-09-30T20:48:45.362Z,73.10
2017-09-30T20:51:12.879Z,73.60
2017-09-30T20:53:40.370Z,74.40
2017-09-30T20:56:08.624Z,73.70
2017-09-30T20:58:36.101Z,73.70
2017-09-30T21:01:04.358Z,81.20
2017-09-30T21:03:31.841Z,80.80
2017-09-30T21:06:00.101Z,74.00
2017-09-30T21:08:28.358Z,75.00
2017-09-30T21:10:55.848Z,75.00
2017-09-30T21:13:24.093Z,74.10
2017-09-30T21:15:51.574Z,74.10
2017-09-30T21:18:19.834Z,90.70
2017-09-30T21:20:47.317Z,90.70
2017-09-30T21:23:15.567Z,80.80
2017-09-30T21:25:43.054Z,79.90
2017-09-30T21:28:11.301Z,90.90
2017-09-30T21:30:38.790Z,90.80
2017-09-30T21:33:07.060Z,77.60
2017-09-30T21:35:35.309Z,75.50
2017-09-30T21:38:02.794Z,74.80
2017-09-30T21:40:31.066Z,76.10
2017-09-30T21:42:58.554Z,76.00
2017-09-30T21:45:26.041Z,77.50
2017-09-30T21:47:53.568Z,86.30
2017-09-30T21:50:21.816Z,82.60
2017-09-30T21:52:49.311Z,84.00
2017-09-30T21:55:16.795Z,77.10
2017-09-30T21:57:44.278Z,90.00
2017-09-30T22:00:11.761Z,75.00
2017-09-30T22:02:40.010Z,83.40
2017-09-30T22:05:07.494Z,83.80
2017-09-30T22:07:34.978Z,78.20
2017-09-30T22:10:02.466Z,82.30
2017-09-30T22:12:29.941Z,80.30
2017-09-30T22:14:57.423Z,76.50
2017-09-30T22:17:24.915Z,82.20
2017-09-30T22:19:52.403Z,78.20
2017-09-30T22:22:19.889Z,80.40
2017-09-30T22:24:47.370Z,83.50
2017-09-30T22:27:15.614Z,78.90
2017-09-30T22:29:43.099Z,78.80
2017-09-30T22:32:11.358Z,79.10
2017-09-30T22:34:38.859Z,79.10
2017-09-30T22:37:07.111Z,81.60
2017-09-30T22:39:34.599Z,81.60
2017-09-30T22:42:02.855Z,86.30
2017-09-30T22:44:31.105Z,87.10
2017-09-30T22:46:58.593Z,87.10
2017-09-30T22:49:26.843Z,88.30
2017-09-30T22:51:54.334Z,88.20
2017-09-30T22:54:22.596Z,88.80
2017-09-30T22:56:50.108Z,88.60
2017-09-30T22:59:17.594Z,91.50
2017-09-30T23:01:45.078Z,89.20
2017-09-30T23:04:12.555Z,88.50
2017-09-30T23:06:40.071Z,92.50
2017-09-30T23:09:07.557Z,88.50
2017-09-30T23:11:35.817Z,88.90
2017-09-30T23:14:03.307Z,88.60
2017-09-30T23:16:31.561Z,90.90
2017-09-30T23:18:59.042Z,90.80
2017-09-30T23:21:27.312Z,89.50
2017-09-30T23:23:55.575Z,90.20
2017-09-30T23:26:23.076Z,90.20
2017-09-30T23:28:50.566Z,90.50
2017-09-30T23:31:18.104Z,88.60
2017-09-30T23:33:45.581Z,89.10
2017-09-30T23:36:13.095Z,89.50
2017-09-30T23:38:41.342Z,90.10
2017-09-30T23:41:10.340Z,90.00
2017-09-30T23:43:37.828Z,90.00
2017-09-30T23:46:05.319Z,90.20
2017-09-30T23:48:32.801Z,90.20
2017-09-30T23:51:00.290Z,90.10
2017-09-30T23:53:28.534Z,90.40
2017-09-30T23:55:56.014Z,90.40
2017-09-30T23:58:23.506Z,90.40
